sensor_id;sensor_type;location;lat;lon;timestamp;temperature;humidity
19892;DHT22;10108;50.142;8.724;2022-08-21T00:00:01;21.90;88.50
19892;DHT22;10108;50.142;8.724;2022-08-21T00:02:27;21.90;88.60
19892;DHT22;10108;50.142;8.724;2022-08-21T00:04:54;21.90;88.70
19892;DHT22;10108;50.142;8.724;2022-08-21T00:07:21;21.90;89.00
19892;DHT22;10108;50.142;8.724;2022-08-21T00:09:47;21.90;89.10
19892;DHT22;10108;50.142;8.724;2022-08-21T00:12:13;21.90;89.20
19892;DHT22;10108;50.142;8.724;2022-08-21T00:14:40;21.90;89.30
19892;DHT22;10108;50.142;8.724;2022-08-21T00:17:06;21.80;89.30
19892;DHT22;10108;50.142;8.724;2022-08-21T00:19:33;21.80;89.50
19892;DHT22;10108;50.142;8.724;2022-08-21T00:21:59;21.80;89.40
19892;DHT22;10108;50.142;8.724;2022-08-21T00:24:26;21.80;89.60
19892;DHT22;10108;50.142;8.724;2022-08-21T00:26:52;21.80;89.90
19892;DHT22;10108;50.142;8.724;2022-08-21T00:29:18;21.80;90.20
19892;DHT22;10108;50.142;8.724;2022-08-21T00:31:45;21.70;90.10
19892;DHT22;10108;50.142;8.724;2022-08-21T00:34:12;21.70;90.40
19892;DHT22;10108;50.142;8.724;2022-08-21T00:36:39;21.70;90.50
19892;DHT22;10108;50.142;8.724;2022-08-21T00:39:07;21.70;90.60
19892;DHT22;10108;50.142;8.724;2022-08-21T00:41:34;21.70;90.70
19892;DHT22;10108;50.142;8.724;2022-08-21T00:44:00;21.70;90.80
19892;DHT22;10108;50.142;8.724;2022-08-21T00:46:27;21.60;90.90
19892;DHT22;10108;50.142;8.724;2022-08-21T00:48:53;21.60;91.10
19892;DHT22;10108;50.142;8.724;2022-08-21T00:51:24;21.50;91.30
19892;DHT22;10108;50.142;8.724;2022-08-21T00:53:55;21.50;91.50
19892;DHT22;10108;50.142;8.724;2022-08-21T00:56:24;21.40;91.50
19892;DHT22;10108;50.142;8.724;2022-08-21T00:58:52;21.40;91.60
19892;DHT22;10108;50.142;8.724;2022-08-21T01:01:19;21.30;91.70
19892;DHT22;10108;50.142;8.724;2022-08-21T01:03:46;21.30;91.90
19892;DHT22;10108;50.142;8.724;2022-08-21T01:06:13;21.20;91.80
19892;DHT22;10108;50.142;8.724;2022-08-21T01:08:39;21.20;91.70
19892;DHT22;10108;50.142;8.724;2022-08-21T01:11:05;21.20;91.70
19892;DHT22;10108;50.142;8.724;2022-08-21T01:13:34;21.20;91.70
19892;DHT22;10108;50.142;8.724;2022-08-21T01:16:04;21.20;91.70
19892;DHT22;10108;50.142;8.724;2022-08-21T01:18:31;21.20;91.80
19892;DHT22;10108;50.142;8.724;2022-08-21T01:21:21;21.20;91.80
19892;DHT22;10108;50.142;8.724;2022-08-21T01:23:52;21.10;91.80
19892;DHT22;10108;50.142;8.724;2022-08-21T01:26:27;21.10;91.80
19892;DHT22;10108;50.142;8.724;2022-08-21T01:29:14;21.10;91.90
19892;DHT22;10108;50.142;8.724;2022-08-21T01:31:42;21.10;92.00
19892;DHT22;10108;50.142;8.724;2022-08-21T01:34:09;21.00;92.00
19892;DHT22;10108;50.142;8.724;2022-08-21T01:36:35;20.90;92.10
19892;DHT22;10108;50.142;8.724;2022-08-21T01:39:03;20.90;92.30
19892;DHT22;10108;50.142;8.724;2022-08-21T01:41:29;20.90;92.30
19892;DHT22;10108;50.142;8.724;2022-08-21T01:43:56;20.90;92.50
19892;DHT22;10108;50.142;8.724;2022-08-21T01:46:22;20.90;92.30
19892;DHT22;10108;50.142;8.724;2022-08-21T01:48:48;20.90;92.40
19892;DHT22;10108;50.142;8.724;2022-08-21T01:51:14;20.90;92.40
19892;DHT22;10108;50.142;8.724;2022-08-21T01:53:41;20.90;92.40
19892;DHT22;10108;50.142;8.724;2022-08-21T01:56:09;20.90;92.50
19892;DHT22;10108;50.142;8.724;2022-08-21T01:58:36;20.80;92.50
19892;DHT22;10108;50.142;8.724;2022-08-21T02:01:03;20.80;92.50
19892;DHT22;10108;50.142;8.724;2022-08-21T02:03:29;20.80;92.50
19892;DHT22;10108;50.142;8.724;2022-08-21T02:05:56;20.80;92.70
19892;DHT22;10108;50.142;8.724;2022-08-21T02:08:23;20.80;92.80
19892;DHT22;10108;50.142;8.724;2022-08-21T02:10:50;20.70;92.90
19892;DHT22;10108;50.142;8.724;2022-08-21T02:13:17;20.70;93.10
19892;DHT22;10108;50.142;8.724;2022-08-21T02:15:43;20.70;93.10
19892;DHT22;10108;50.142;8.724;2022-08-21T02:18:10;20.70;93.10
19892;DHT22;10108;50.142;8.724;2022-08-21T02:20:40;20.70;93.00
19892;DHT22;10108;50.142;8.724;2022-08-21T02:23:08;20.70;93.10
19892;DHT22;10108;50.142;8.724;2022-08-21T02:25:36;20.70;93.10
19892;DHT22;10108;50.142;8.724;2022-08-21T02:28:06;20.70;93.10
19892;DHT22;10108;50.142;8.724;2022-08-21T02:30:35;20.60;93.00
19892;DHT22;10108;50.142;8.724;2022-08-21T02:33:06;20.60;93.20
19892;DHT22;10108;50.142;8.724;2022-08-21T02:35:33;20.60;93.30
19892;DHT22;10108;50.142;8.724;2022-08-21T02:38:06;20.50;93.40
19892;DHT22;10108;50.142;8.724;2022-08-21T02:40:35;20.40;93.30
19892;DHT22;10108;50.142;8.724;2022-08-21T02:43:03;20.30;93.30
19892;DHT22;10108;50.142;8.724;2022-08-21T02:45:30;20.30;93.40
19892;DHT22;10108;50.142;8.724;2022-08-21T02:48:03;20.30;93.40
19892;DHT22;10108;50.142;8.724;2022-08-21T02:50:32;20.30;93.40
19892;DHT22;10108;50.142;8.724;2022-08-21T02:52:59;20.20;93.60
19892;DHT22;10108;50.142;8.724;2022-08-21T02:55:28;20.20;93.70
19892;DHT22;10108;50.142;8.724;2022-08-21T02:57:56;20.20;93.50
19892;DHT22;10108;50.142;8.724;2022-08-21T03:00:24;20.20;93.50
19892;DHT22;10108;50.142;8.724;2022-08-21T03:02:52;20.10;93.50
19892;DHT22;10108;50.142;8.724;2022-08-21T03:05:19;20.10;93.60
19892;DHT22;10108;50.142;8.724;2022-08-21T03:07:46;20.10;93.50
19892;DHT22;10108;50.142;8.724;2022-08-21T03:10:14;20.10;93.40
19892;DHT22;10108;50.142;8.724;2022-08-21T03:12:40;20.10;93.50
19892;DHT22;10108;50.142;8.724;2022-08-21T03:15:09;20.10;93.60
19892;DHT22;10108;50.142;8.724;2022-08-21T03:17:36;20.00;93.80
19892;DHT22;10108;50.142;8.724;2022-08-21T03:20:04;20.00;93.90
19892;DHT22;10108;50.142;8.724;2022-08-21T03:22:31;20.10;93.90
19892;DHT22;10108;50.142;8.724;2022-08-21T03:24:58;20.10;93.80
19892;DHT22;10108;50.142;8.724;2022-08-21T03:27:26;20.10;93.60
19892;DHT22;10108;50.142;8.724;2022-08-21T03:29:53;20.10;93.50
19892;DHT22;10108;50.142;8.724;2022-08-21T03:32:19;20.10;93.70
19892;DHT22;10108;50.142;8.724;2022-08-21T03:34:46;20.00;93.70
19892;DHT22;10108;50.142;8.724;2022-08-21T03:37:12;20.00;93.80
19892;DHT22;10108;50.142;8.724;2022-08-21T03:39:39;19.90;93.80
19892;DHT22;10108;50.142;8.724;2022-08-21T03:42:05;19.90;93.80
19892;DHT22;10108;50.142;8.724;2022-08-21T03:44:32;19.90;93.90
19892;DHT22;10108;50.142;8.724;2022-08-21T03:46:58;19.90;94.00
19892;DHT22;10108;50.142;8.724;2022-08-21T03:49:25;19.90;94.10
19892;DHT22;10108;50.142;8.724;2022-08-21T03:51:51;19.80;94.20
19892;DHT22;10108;50.142;8.724;2022-08-21T03:54:17;19.80;94.30
19892;DHT22;10108;50.142;8.724;2022-08-21T03:56:44;19.80;94.30
19892;DHT22;10108;50.142;8.724;2022-08-21T03:59:10;19.80;94.20
19892;DHT22;10108;50.142;8.724;2022-08-21T04:01:36;19.80;94.20
19892;DHT22;10108;50.142;8.724;2022-08-21T04:04:03;19.70;94.30
19892;DHT22;10108;50.142;8.724;2022-08-21T04:06:29;19.70;94.40
19892;DHT22;10108;50.142;8.724;2022-08-21T04:08:56;19.70;94.60
19892;DHT22;10108;50.142;8.724;2022-08-21T04:11:22;19.60;94.70
19892;DHT22;10108;50.142;8.724;2022-08-21T04:13:48;19.60;94.80
19892;DHT22;10108;50.142;8.724;2022-08-21T04:16:14;19.60;94.80
19892;DHT22;10108;50.142;8.724;2022-08-21T04:18:41;19.70;94.70
19892;DHT22;10108;50.142;8.724;2022-08-21T04:21:09;19.70;94.60
19892;DHT22;10108;50.142;8.724;2022-08-21T04:23:36;19.60;94.60
19892;DHT22;10108;50.142;8.724;2022-08-21T04:26:02;19.60;94.70
19892;DHT22;10108;50.142;8.724;2022-08-21T04:28:29;19.60;94.70
19892;DHT22;10108;50.142;8.724;2022-08-21T04:30:55;19.60;94.80
19892;DHT22;10108;50.142;8.724;2022-08-21T04:33:22;19.60;94.90
19892;DHT22;10108;50.142;8.724;2022-08-21T04:35:49;19.60;94.80
19892;DHT22;10108;50.142;8.724;2022-08-21T04:38:15;19.50;94.70
19892;DHT22;10108;50.142;8.724;2022-08-21T04:40:41;19.50;94.90
19892;DHT22;10108;50.142;8.724;2022-08-21T04:43:09;19.40;94.90
19892;DHT22;10108;50.142;8.724;2022-08-21T04:45:39;19.40;94.90
19892;DHT22;10108;50.142;8.724;2022-08-21T04:48:07;19.40;94.90
19892;DHT22;10108;50.142;8.724;2022-08-21T04:53:49;19.40;94.80
19892;DHT22;10108;50.142;8.724;2022-08-21T04:56:25;19.40;94.80
19892;DHT22;10108;50.142;8.724;2022-08-21T04:58:55;19.40;94.90
19892;DHT22;10108;50.142;8.724;2022-08-21T05:01:23;19.40;95.00
19892;DHT22;10108;50.142;8.724;2022-08-21T05:03:52;19.40;95.10
19892;DHT22;10108;50.142;8.724;2022-08-21T05:06:20;19.40;95.20
19892;DHT22;10108;50.142;8.724;2022-08-21T05:08:48;19.40;95.30
19892;DHT22;10108;50.142;8.724;2022-08-21T05:11:15;19.40;95.60
19892;DHT22;10108;50.142;8.724;2022-08-21T05:13:41;19.40;95.60
19892;DHT22;10108;50.142;8.724;2022-08-21T05:16:08;19.40;95.60
19892;DHT22;10108;50.142;8.724;2022-08-21T05:18:34;19.40;95.50
19892;DHT22;10108;50.142;8.724;2022-08-21T05:21:00;19.40;95.40
19892;DHT22;10108;50.142;8.724;2022-08-21T05:23:26;19.50;95.30
19892;DHT22;10108;50.142;8.724;2022-08-21T05:25:53;19.50;95.30
19892;DHT22;10108;50.142;8.724;2022-08-21T05:28:19;19.50;95.30
19892;DHT22;10108;50.142;8.724;2022-08-21T05:30:45;19.60;95.30
19892;DHT22;10108;50.142;8.724;2022-08-21T05:33:11;19.60;95.10
19892;DHT22;10108;50.142;8.724;2022-08-21T05:35:38;19.60;95.00
19892;DHT22;10108;50.142;8.724;2022-08-21T05:38:05;19.60;94.90
19892;DHT22;10108;50.142;8.724;2022-08-21T05:40:32;19.60;95.00
19892;DHT22;10108;50.142;8.724;2022-08-21T05:42:58;19.60;95.10
19892;DHT22;10108;50.142;8.724;2022-08-21T05:45:28;19.60;95.10
19892;DHT22;10108;50.142;8.724;2022-08-21T05:47:54;19.60;95.10
19892;DHT22;10108;50.142;8.724;2022-08-21T05:50:21;19.60;95.10
19892;DHT22;10108;50.142;8.724;2022-08-21T05:52:47;19.60;95.10
19892;DHT22;10108;50.142;8.724;2022-08-21T05:55:13;19.60;95.10
19892;DHT22;10108;50.142;8.724;2022-08-21T05:57:39;19.70;95.30
19892;DHT22;10108;50.142;8.724;2022-08-21T06:00:10;19.70;95.20
19892;DHT22;10108;50.142;8.724;2022-08-21T06:02:39;19.70;95.20
19892;DHT22;10108;50.142;8.724;2022-08-21T06:05:06;19.80;95.10
19892;DHT22;10108;50.142;8.724;2022-08-21T06:07:32;19.80;95.20
19892;DHT22;10108;50.142;8.724;2022-08-21T06:09:59;19.80;95.20
19892;DHT22;10108;50.142;8.724;2022-08-21T06:12:25;19.90;95.20
19892;DHT22;10108;50.142;8.724;2022-08-21T06:14:52;19.90;95.10
19892;DHT22;10108;50.142;8.724;2022-08-21T06:17:18;20.00;95.20
19892;DHT22;10108;50.142;8.724;2022-08-21T06:19:44;20.00;95.30
19892;DHT22;10108;50.142;8.724;2022-08-21T06:22:10;20.10;95.30
19892;DHT22;10108;50.142;8.724;2022-08-21T06:24:36;20.10;95.20
19892;DHT22;10108;50.142;8.724;2022-08-21T06:27:05;20.20;95.40
19892;DHT22;10108;50.142;8.724;2022-08-21T06:29:32;20.20;95.20
19892;DHT22;10108;50.142;8.724;2022-08-21T06:31:58;20.30;95.20
19892;DHT22;10108;50.142;8.724;2022-08-21T06:34:24;20.30;95.10
19892;DHT22;10108;50.142;8.724;2022-08-21T06:36:50;20.30;95.00
19892;DHT22;10108;50.142;8.724;2022-08-21T06:39:16;20.30;95.10
19892;DHT22;10108;50.142;8.724;2022-08-21T06:41:42;20.30;95.00
19892;DHT22;10108;50.142;8.724;2022-08-21T06:44:09;20.40;95.10
19892;DHT22;10108;50.142;8.724;2022-08-21T06:46:35;20.40;95.20
19892;DHT22;10108;50.142;8.724;2022-08-21T06:49:01;20.40;95.20
19892;DHT22;10108;50.142;8.724;2022-08-21T06:51:27;20.50;95.20
19892;DHT22;10108;50.142;8.724;2022-08-21T06:53:54;20.50;95.30
19892;DHT22;10108;50.142;8.724;2022-08-21T06:56:20;20.50;95.20
19892;DHT22;10108;50.142;8.724;2022-08-21T06:58:47;20.50;95.30
19892;DHT22;10108;50.142;8.724;2022-08-21T07:01:13;20.60;95.20
19892;DHT22;10108;50.142;8.724;2022-08-21T07:03:41;20.60;95.30
19892;DHT22;10108;50.142;8.724;2022-08-21T07:06:09;20.60;95.30
19892;DHT22;10108;50.142;8.724;2022-08-21T07:08:37;20.60;95.50
19892;DHT22;10108;50.142;8.724;2022-08-21T07:11:09;20.60;95.80
19892;DHT22;10108;50.142;8.724;2022-08-21T07:13:36;20.60;95.80
19892;DHT22;10108;50.142;8.724;2022-08-21T07:16:03;20.70;96.20
19892;DHT22;10108;50.142;8.724;2022-08-21T07:18:29;20.70;95.90
19892;DHT22;10108;50.142;8.724;2022-08-21T07:20:55;20.70;95.90
19892;DHT22;10108;50.142;8.724;2022-08-21T07:25:49;20.90;96.00
19892;DHT22;10108;50.142;8.724;2022-08-21T07:28:15;20.90;96.00
19892;DHT22;10108;50.142;8.724;2022-08-21T07:30:42;20.90;95.90
19892;DHT22;10108;50.142;8.724;2022-08-21T07:33:08;21.00;95.90
19892;DHT22;10108;50.142;8.724;2022-08-21T07:35:34;21.00;95.50
19892;DHT22;10108;50.142;8.724;2022-08-21T07:38:00;21.00;95.50
19892;DHT22;10108;50.142;8.724;2022-08-21T07:40:26;21.00;95.50
19892;DHT22;10108;50.142;8.724;2022-08-21T07:42:52;21.00;95.60
19892;DHT22;10108;50.142;8.724;2022-08-21T07:45:20;21.10;95.60
19892;DHT22;10108;50.142;8.724;2022-08-21T07:47:47;21.00;95.30
19892;DHT22;10108;50.142;8.724;2022-08-21T07:50:15;21.10;95.40
19892;DHT22;10108;50.142;8.724;2022-08-21T07:52:41;21.00;95.30
19892;DHT22;10108;50.142;8.724;2022-08-21T07:55:11;21.00;95.50
19892;DHT22;10108;50.142;8.724;2022-08-21T07:57:38;21.00;95.50
19892;DHT22;10108;50.142;8.724;2022-08-21T08:00:07;21.10;95.80
19892;DHT22;10108;50.142;8.724;2022-08-21T08:02:38;21.10;95.80
19892;DHT22;10108;50.142;8.724;2022-08-21T08:05:07;21.20;95.80
19892;DHT22;10108;50.142;8.724;2022-08-21T08:07:33;21.20;95.90
19892;DHT22;10108;50.142;8.724;2022-08-21T08:10:01;21.20;96.00
19892;DHT22;10108;50.142;8.724;2022-08-21T08:12:27;21.30;95.80
19892;DHT22;10108;50.142;8.724;2022-08-21T08:14:56;21.30;96.00
19892;DHT22;10108;50.142;8.724;2022-08-21T08:17:23;21.40;96.20
19892;DHT22;10108;50.142;8.724;2022-08-21T08:19:49;21.40;96.20
19892;DHT22;10108;50.142;8.724;2022-08-21T08:22:18;21.40;96.20
19892;DHT22;10108;50.142;8.724;2022-08-21T08:24:50;21.50;96.00
19892;DHT22;10108;50.142;8.724;2022-08-21T08:27:17;21.50;96.00
19892;DHT22;10108;50.142;8.724;2022-08-21T08:29:44;21.50;96.20
19892;DHT22;10108;50.142;8.724;2022-08-21T08:32:10;21.60;96.30
19892;DHT22;10108;50.142;8.724;2022-08-21T08:34:37;21.60;96.30
19892;DHT22;10108;50.142;8.724;2022-08-21T08:37:06;21.60;96.00
19892;DHT22;10108;50.142;8.724;2022-08-21T08:39:34;21.60;96.00
19892;DHT22;10108;50.142;8.724;2022-08-21T08:42:08;21.70;96.10
19892;DHT22;10108;50.142;8.724;2022-08-21T08:44:42;21.70;96.20
19892;DHT22;10108;50.142;8.724;2022-08-21T08:47:11;21.70;96.20
19892;DHT22;10108;50.142;8.724;2022-08-21T08:52:34;21.80;95.90
19892;DHT22;10108;50.142;8.724;2022-08-21T08:55:12;21.80;95.80
19892;DHT22;10108;50.142;8.724;2022-08-21T08:57:43;21.90;96.30
19892;DHT22;10108;50.142;8.724;2022-08-21T09:00:12;21.90;95.90
19892;DHT22;10108;50.142;8.724;2022-08-21T09:02:40;21.90;95.80
19892;DHT22;10108;50.142;8.724;2022-08-21T09:05:09;21.90;95.70
19892;DHT22;10108;50.142;8.724;2022-08-21T09:07:44;21.90;95.40
19892;DHT22;10108;50.142;8.724;2022-08-21T09:10:20;22.00;95.40
19892;DHT22;10108;50.142;8.724;2022-08-21T09:13:15;22.00;97.00
19892;DHT22;10108;50.142;8.724;2022-08-21T09:16:10;22.00;95.10
19892;DHT22;10108;50.142;8.724;2022-08-21T09:18:44;22.10;94.20
19892;DHT22;10108;50.142;8.724;2022-08-21T09:21:35;22.10;93.70
19892;DHT22;10108;50.142;8.724;2022-08-21T09:27:09;22.20;95.20
19892;DHT22;10108;50.142;8.724;2022-08-21T09:29:42;21.90;98.00
19892;DHT22;10108;50.142;8.724;2022-08-21T09:32:24;21.60;98.20
19892;DHT22;10108;50.142;8.724;2022-08-21T09:35:13;21.40;99.30
19892;DHT22;10108;50.142;8.724;2022-08-21T09:37:47;21.30;98.90
19892;DHT22;10108;50.142;8.724;2022-08-21T09:40:39;21.30;96.70
19892;DHT22;10108;50.142;8.724;2022-08-21T09:43:20;21.40;95.60
19892;DHT22;10108;50.142;8.724;2022-08-21T09:45:48;21.60;93.90
19892;DHT22;10108;50.142;8.724;2022-08-21T09:48:23;21.80;95.00
19892;DHT22;10108;50.142;8.724;2022-08-21T09:50:51;21.90;93.70
19892;DHT22;10108;50.142;8.724;2022-08-21T09:53:29;22.00;94.70
19892;DHT22;10108;50.142;8.724;2022-08-21T09:56:05;22.10;94.10
19892;DHT22;10108;50.142;8.724;2022-08-21T09:58:50;22.30;92.90
19892;DHT22;10108;50.142;8.724;2022-08-21T10:01:22;22.40;94.30
19892;DHT22;10108;50.142;8.724;2022-08-21T10:04:02;22.50;94.80
19892;DHT22;10108;50.142;8.724;2022-08-21T10:06:29;22.50;93.70
19892;DHT22;10108;50.142;8.724;2022-08-21T10:09:11;22.60;92.80
19892;DHT22;10108;50.142;8.724;2022-08-21T10:11:40;22.60;96.50
19892;DHT22;10108;50.142;8.724;2022-08-21T10:15:18;22.60;96.80
19892;DHT22;10108;50.142;8.724;2022-08-21T10:17:48;22.60;97.00
19892;DHT22;10108;50.142;8.724;2022-08-21T10:20:41;22.70;93.40
19892;DHT22;10108;50.142;8.724;2022-08-21T10:25:55;22.80;92.10
19892;DHT22;10108;50.142;8.724;2022-08-21T10:28:30;22.90;91.40
19892;DHT22;10108;50.142;8.724;2022-08-21T10:31:07;23.00;93.10
19892;DHT22;10108;50.142;8.724;2022-08-21T10:33:50;23.00;91.50
19892;DHT22;10108;50.142;8.724;2022-08-21T10:42:38;23.30;94.60
19892;DHT22;10108;50.142;8.724;2022-08-21T10:48:08;23.20;90.00
19892;DHT22;10108;50.142;8.724;2022-08-21T10:56:19;23.20;88.30
19892;DHT22;10108;50.142;8.724;2022-08-21T10:59:04;23.20;88.10
19892;DHT22;10108;50.142;8.724;2022-08-21T11:04:34;23.40;92.40
19892;DHT22;10108;50.142;8.724;2022-08-21T11:07:07;23.40;94.10
19892;DHT22;10108;50.142;8.724;2022-08-21T11:09:40;23.50;92.40
19892;DHT22;10108;50.142;8.724;2022-08-21T11:12:24;23.50;92.50
19892;DHT22;10108;50.142;8.724;2022-08-21T11:17:49;23.60;88.60
19892;DHT22;10108;50.142;8.724;2022-08-21T11:20:38;23.70;89.30
19892;DHT22;10108;50.142;8.724;2022-08-21T11:23:20;23.70;88.20
19892;DHT22;10108;50.142;8.724;2022-08-21T11:25:51;23.80;85.50
19892;DHT22;10108;50.142;8.724;2022-08-21T11:28:28;23.80;86.00
19892;DHT22;10108;50.142;8.724;2022-08-21T11:31:14;23.80;88.90
19892;DHT22;10108;50.142;8.724;2022-08-21T11:41:43;23.80;91.90
19892;DHT22;10108;50.142;8.724;2022-08-21T11:44:40;23.80;96.50
19892;DHT22;10108;50.142;8.724;2022-08-21T11:50:28;23.80;88.50
19892;DHT22;10108;50.142;8.724;2022-08-21T11:53:01;23.80;91.20
19892;DHT22;10108;50.142;8.724;2022-08-21T11:55:32;23.90;90.70
19892;DHT22;10108;50.142;8.724;2022-08-21T11:58:08;23.90;91.20
19892;DHT22;10108;50.142;8.724;2022-08-21T12:00:49;23.90;94.70
19892;DHT22;10108;50.142;8.724;2022-08-21T12:03:25;23.80;91.20
19892;DHT22;10108;50.142;8.724;2022-08-21T12:05:58;23.80;90.80
19892;DHT22;10108;50.142;8.724;2022-08-21T12:08:32;23.80;88.30
19892;DHT22;10108;50.142;8.724;2022-08-21T12:11:25;23.90;90.20
19892;DHT22;10108;50.142;8.724;2022-08-21T12:14:13;24.00;94.70
19892;DHT22;10108;50.142;8.724;2022-08-21T12:16:47;23.90;95.10
19892;DHT22;10108;50.142;8.724;2022-08-21T12:19:35;23.90;93.20
19892;DHT22;10108;50.142;8.724;2022-08-21T12:24:40;23.80;89.70
19892;DHT22;10108;50.142;8.724;2022-08-21T12:30:17;23.80;85.30
19892;DHT22;10108;50.142;8.724;2022-08-21T12:32:53;23.80;83.20
19892;DHT22;10108;50.142;8.724;2022-08-21T12:35:30;23.80;85.30
19892;DHT22;10108;50.142;8.724;2022-08-21T12:40:40;23.80;83.90
19892;DHT22;10108;50.142;8.724;2022-08-21T12:43:27;23.90;81.90
19892;DHT22;10108;50.142;8.724;2022-08-21T12:45:54;23.90;87.30
19892;DHT22;10108;50.142;8.724;2022-08-21T12:51:12;24.10;87.20
19892;DHT22;10108;50.142;8.724;2022-08-21T12:53:45;24.20;92.00
19892;DHT22;10108;50.142;8.724;2022-08-21T12:56:16;24.10;94.30
19892;DHT22;10108;50.142;8.724;2022-08-21T12:58:51;24.20;84.10
19892;DHT22;10108;50.142;8.724;2022-08-21T13:01:26;24.20;92.30
19892;DHT22;10108;50.142;8.724;2022-08-21T13:03:56;24.20;88.40
19892;DHT22;10108;50.142;8.724;2022-08-21T13:06:25;24.20;80.50
19892;DHT22;10108;50.142;8.724;2022-08-21T13:08:57;24.20;78.10
19892;DHT22;10108;50.142;8.724;2022-08-21T13:11:25;24.20;78.90
19892;DHT22;10108;50.142;8.724;2022-08-21T13:13:52;24.30;78.80
19892;DHT22;10108;50.142;8.724;2022-08-21T13:16:27;24.30;84.10
19892;DHT22;10108;50.142;8.724;2022-08-21T13:21:20;24.30;78.60
19892;DHT22;10108;50.142;8.724;2022-08-21T13:23:47;24.40;80.30
19892;DHT22;10108;50.142;8.724;2022-08-21T13:26:15;24.40;90.40
19892;DHT22;10108;50.142;8.724;2022-08-21T13:28:41;24.40;92.10
19892;DHT22;10108;50.142;8.724;2022-08-21T13:31:10;24.30;89.60
19892;DHT22;10108;50.142;8.724;2022-08-21T13:33:37;24.30;83.90
19892;DHT22;10108;50.142;8.724;2022-08-21T13:36:10;24.30;80.70
19892;DHT22;10108;50.142;8.724;2022-08-21T13:38:40;24.30;85.20
19892;DHT22;10108;50.142;8.724;2022-08-21T13:41:24;24.30;84.40
19892;DHT22;10108;50.142;8.724;2022-08-21T13:44:04;24.30;78.50
19892;DHT22;10108;50.142;8.724;2022-08-21T13:46:33;24.40;77.10
19892;DHT22;10108;50.142;8.724;2022-08-21T13:49:01;24.40;76.20
19892;DHT22;10108;50.142;8.724;2022-08-21T13:51:29;24.40;75.20
19892;DHT22;10108;50.142;8.724;2022-08-21T13:53:57;24.40;75.00
19892;DHT22;10108;50.142;8.724;2022-08-21T13:56:33;24.40;75.20
19892;DHT22;10108;50.142;8.724;2022-08-21T13:59:06;24.30;75.20
19892;DHT22;10108;50.142;8.724;2022-08-21T14:01:38;24.20;74.80
19892;DHT22;10108;50.142;8.724;2022-08-21T14:04:35;24.10;74.50
19892;DHT22;10108;50.142;8.724;2022-08-21T14:07:14;24.10;74.50
19892;DHT22;10108;50.142;8.724;2022-08-21T14:09:43;24.00;74.80
19892;DHT22;10108;50.142;8.724;2022-08-21T14:14:40;23.90;75.20
19892;DHT22;10108;50.142;8.724;2022-08-21T14:17:10;23.80;75.10
19892;DHT22;10108;50.142;8.724;2022-08-21T14:19:43;23.80;75.30
19892;DHT22;10108;50.142;8.724;2022-08-21T14:25:03;23.90;73.30
19892;DHT22;10108;50.142;8.724;2022-08-21T14:27:33;23.90;72.80
19892;DHT22;10108;50.142;8.724;2022-08-21T14:30:09;23.90;72.70
19892;DHT22;10108;50.142;8.724;2022-08-21T14:32:38;23.90;72.70
19892;DHT22;10108;50.142;8.724;2022-08-21T14:35:08;23.90;72.80
19892;DHT22;10108;50.142;8.724;2022-08-21T14:37:35;24.00;74.00
19892;DHT22;10108;50.142;8.724;2022-08-21T14:40:03;24.10;77.30
19892;DHT22;10108;50.142;8.724;2022-08-21T14:42:30;24.20;80.80
19892;DHT22;10108;50.142;8.724;2022-08-21T14:45:01;24.30;80.20
19892;DHT22;10108;50.142;8.724;2022-08-21T14:47:27;24.30;81.70
19892;DHT22;10108;50.142;8.724;2022-08-21T14:49:54;24.30;87.60
19892;DHT22;10108;50.142;8.724;2022-08-21T14:52:20;24.20;83.90
19892;DHT22;10108;50.142;8.724;2022-08-21T14:54:48;24.10;85.00
19892;DHT22;10108;50.142;8.724;2022-08-21T14:57:14;24.10;82.90
19892;DHT22;10108;50.142;8.724;2022-08-21T14:59:40;24.00;90.30
19892;DHT22;10108;50.142;8.724;2022-08-21T15:02:07;24.00;89.60
19892;DHT22;10108;50.142;8.724;2022-08-21T15:04:34;23.90;89.30
19892;DHT22;10108;50.142;8.724;2022-08-21T15:07:00;23.90;82.70
19892;DHT22;10108;50.142;8.724;2022-08-21T15:09:27;23.90;86.00
19892;DHT22;10108;50.142;8.724;2022-08-21T15:11:56;23.90;79.50
19892;DHT22;10108;50.142;8.724;2022-08-21T15:14:28;23.90;78.50
19892;DHT22;10108;50.142;8.724;2022-08-21T15:16:55;24.00;76.00
19892;DHT22;10108;50.142;8.724;2022-08-21T15:19:21;24.10;81.30
19892;DHT22;10108;50.142;8.724;2022-08-21T15:21:48;24.10;90.30
19892;DHT22;10108;50.142;8.724;2022-08-21T15:24:14;24.10;90.90
19892;DHT22;10108;50.142;8.724;2022-08-21T15:26:41;24.00;90.40
19892;DHT22;10108;50.142;8.724;2022-08-21T15:29:07;23.90;90.60
19892;DHT22;10108;50.142;8.724;2022-08-21T15:31:35;23.90;93.10
19892;DHT22;10108;50.142;8.724;2022-08-21T15:34:01;23.90;86.30
19892;DHT22;10108;50.142;8.724;2022-08-21T15:36:27;23.90;87.00
19892;DHT22;10108;50.142;8.724;2022-08-21T15:38:53;23.90;82.00
19892;DHT22;10108;50.142;8.724;2022-08-21T15:41:20;24.00;87.30
19892;DHT22;10108;50.142;8.724;2022-08-21T15:43:49;24.00;84.70
19892;DHT22;10108;50.142;8.724;2022-08-21T15:46:17;24.00;83.10
19892;DHT22;10108;50.142;8.724;2022-08-21T15:48:44;23.90;80.90
19892;DHT22;10108;50.142;8.724;2022-08-21T15:51:12;23.90;83.80
19892;DHT22;10108;50.142;8.724;2022-08-21T15:53:39;23.90;84.80
19892;DHT22;10108;50.142;8.724;2022-08-21T15:58:50;23.90;84.20
19892;DHT22;10108;50.142;8.724;2022-08-21T16:01:19;24.00;87.90
19892;DHT22;10108;50.142;8.724;2022-08-21T16:03:49;24.00;92.00
19892;DHT22;10108;50.142;8.724;2022-08-21T16:06:15;24.00;93.50
19892;DHT22;10108;50.142;8.724;2022-08-21T16:08:42;24.00;85.10
19892;DHT22;10108;50.142;8.724;2022-08-21T16:11:08;24.10;80.30
19892;DHT22;10108;50.142;8.724;2022-08-21T16:13:40;24.10;76.50
19892;DHT22;10108;50.142;8.724;2022-08-21T16:16:11;24.10;77.60
19892;DHT22;10108;50.142;8.724;2022-08-21T16:18:38;24.10;81.00
19892;DHT22;10108;50.142;8.724;2022-08-21T16:21:05;24.00;82.40
19892;DHT22;10108;50.142;8.724;2022-08-21T16:23:34;24.00;83.60
19892;DHT22;10108;50.142;8.724;2022-08-21T16:26:02;23.90;84.10
19892;DHT22;10108;50.142;8.724;2022-08-21T16:28:30;23.90;87.80
19892;DHT22;10108;50.142;8.724;2022-08-21T16:30:56;23.90;88.50
19892;DHT22;10108;50.142;8.724;2022-08-21T16:35:52;23.80;86.50
19892;DHT22;10108;50.142;8.724;2022-08-21T16:38:18;23.80;86.00
19892;DHT22;10108;50.142;8.724;2022-08-21T16:40:45;23.70;85.40
19892;DHT22;10108;50.142;8.724;2022-08-21T16:43:11;23.70;84.10
19892;DHT22;10108;50.142;8.724;2022-08-21T16:45:42;23.70;82.00
19892;DHT22;10108;50.142;8.724;2022-08-21T16:48:08;23.70;80.80
19892;DHT22;10108;50.142;8.724;2022-08-21T16:50:36;23.70;80.00
19892;DHT22;10108;50.142;8.724;2022-08-21T16:53:03;23.70;79.00
19892;DHT22;10108;50.142;8.724;2022-08-21T16:55:29;23.70;79.10